createdAt,value
2019-01-28T00:00:36.196Z,14.70
2019-01-28T00:03:04.012Z,14.60
2019-01-28T00:05:30.340Z,14.60
2019-01-28T00:07:56.765Z,14.60
2019-01-28T00:10:23.180Z,14.60
2019-01-28T00:12:49.633Z,14.60
2019-01-28T00:15:16.041Z,14.60
2019-01-28T00:17:42.373Z,14.60
2019-01-28T00:20:08.786Z,14.60
2019-01-28T00:22:35.097Z,14.60
2019-01-28T00:25:01.530Z,14.50
2019-01-28T00:27:27.946Z,14.50
2019-01-28T00:29:54.384Z,14.50
2019-01-28T00:32:21.006Z,14.50
2019-01-28T00:34:47.305Z,14.50
2019-01-28T00:37:13.762Z,14.50
2019-01-28T00:39:40.165Z,14.50
2019-01-28T00:42:06.802Z,14.50
2019-01-28T00:44:33.328Z,14.50
2019-01-28T00:46:59.640Z,14.50
2019-01-28T00:49:25.973Z,14.50
2019-01-28T00:51:54.172Z,14.50
2019-01-28T00:54:20.575Z,14.50
2019-01-28T00:56:46.894Z,14.50
2019-01-28T00:59:13.172Z,14.50
2019-01-28T01:01:39.505Z,14.50
2019-01-28T01:04:05.925Z,14.50
2019-01-28T01:06:32.340Z,14.50
2019-01-28T01:08:58.647Z,14.50
2019-01-28T01:11:24.953Z,14.50
2019-01-28T01:13:51.602Z,14.50
2019-01-28T01:16:18.018Z,14.50
2019-01-28T01:18:44.322Z,14.40
2019-01-28T01:21:10.793Z,14.40
2019-01-28T01:23:37.194Z,14.40
2019-01-28T01:26:03.644Z,14.40
2019-01-28T01:28:30.125Z,14.40
2019-01-28T01:30:56.442Z,14.40
2019-01-28T01:33:22.858Z,14.40
2019-01-28T01:35:49.360Z,14.50
2019-01-28T01:38:15.677Z,14.40
2019-01-28T01:40:42.093Z,14.50
2019-01-28T01:43:08.496Z,14.40
2019-01-28T01:45:34.785Z,14.40
2019-01-28T01:48:01.191Z,14.40
2019-01-28T01:50:27.976Z,14.40
2019-01-28T01:52:54.709Z,14.40
2019-01-28T01:55:21.132Z,14.40
2019-01-28T01:57:47.520Z,14.40
2019-01-28T02:00:16.271Z,14.40
2019-01-28T02:02:42.802Z,14.40
2019-01-28T02:05:09.757Z,14.40
2019-01-28T02:07:36.168Z,14.40
2019-01-28T02:10:05.169Z,14.40
2019-01-28T02:12:31.668Z,14.30
2019-01-28T02:14:57.999Z,14.40
2019-01-28T02:17:24.393Z,14.40
2019-01-28T02:19:51.008Z,14.40
2019-01-28T02:22:17.414Z,14.40
2019-01-28T02:24:43.861Z,14.30
2019-01-28T02:27:10.397Z,14.30
2019-01-28T02:29:36.697Z,14.30
2019-01-28T02:32:03.209Z,14.30
2019-01-28T02:34:29.608Z,14.30
2019-01-28T02:36:55.932Z,14.30
2019-01-28T02:39:22.464Z,14.30
2019-01-28T02:41:49.435Z,14.30
2019-01-28T02:44:15.982Z,14.30
2019-01-28T02:46:42.288Z,14.30
2019-01-28T02:49:08.709Z,14.30
2019-01-28T02:51:35.066Z,14.30
2019-01-28T02:54:01.687Z,14.30
2019-01-28T02:56:28.011Z,14.30
2019-01-28T02:58:54.754Z,14.30
2019-01-28T03:01:21.597Z,14.20
2019-01-28T03:03:48.031Z,14.20
2019-01-28T03:06:14.566Z,14.20
2019-01-28T03:08:40.887Z,14.20
2019-01-28T03:11:07.837Z,14.20
2019-01-28T03:13:34.237Z,14.20
2019-01-28T03:16:00.982Z,14.20
2019-01-28T03:18:27.246Z,14.20
2019-01-28T03:20:53.560Z,14.20
2019-01-28T03:23:21.372Z,14.20
2019-01-28T03:25:47.788Z,14.20
2019-01-28T03:28:14.629Z,14.20
2019-01-28T03:30:41.034Z,14.20
2019-01-28T03:33:07.679Z,14.20
2019-01-28T03:35:34.189Z,14.20
2019-01-28T03:38:00.485Z,14.20
2019-01-28T03:40:27.125Z,14.20
2019-01-28T03:42:53.520Z,14.20
2019-01-28T03:45:21.556Z,14.20
2019-01-28T03:47:47.854Z,14.20
2019-01-28T03:50:15.970Z,14.20
2019-01-28T03:52:42.366Z,14.10
2019-01-28T03:55:10.615Z,14.20
2019-01-28T03:57:37.072Z,14.20
2019-01-28T04:00:10.326Z,14.10
2019-01-28T04:02:36.823Z,14.20
2019-01-28T04:05:06.538Z,14.20
2019-01-28T04:07:33.193Z,14.10
2019-01-28T04:09:59.844Z,14.10
2019-01-28T04:12:26.343Z,14.10
2019-01-28T04:14:52.661Z,14.10
2019-01-28T04:17:18.975Z,14.10
2019-01-28T04:19:45.692Z,14.10
2019-01-28T04:22:12.109Z,14.10
2019-01-28T04:24:39.065Z,14.10
2019-01-28T04:27:05.384Z,14.10
2019-01-28T04:29:32.001Z,14.10
2019-01-28T04:31:58.528Z,14.10
2019-01-28T04:34:24.853Z,14.10
2019-01-28T04:36:51.146Z,14.10
2019-01-28T04:39:17.661Z,14.10
2019-01-28T04:41:43.961Z,14.00
2019-01-28T04:44:10.294Z,14.00
2019-01-28T04:46:36.938Z,14.00
2019-01-28T04:49:03.562Z,14.00
2019-01-28T04:51:30.779Z,14.00
2019-01-28T04:53:57.482Z,14.00
2019-01-28T04:56:24.209Z,14.00
2019-01-28T04:58:50.763Z,14.00
2019-01-28T05:01:17.800Z,14.00
2019-01-28T05:03:44.459Z,14.00
2019-01-28T05:06:10.964Z,14.00
2019-01-28T05:08:37.601Z,14.00
2019-01-28T05:11:03.967Z,14.00
2019-01-28T05:13:30.356Z,14.00
2019-01-28T05:15:56.883Z,14.00
2019-01-28T05:18:23.196Z,14.00
2019-01-28T05:20:49.849Z,14.00
2019-01-28T05:23:16.292Z,14.00
2019-01-28T05:25:42.584Z,14.00
2019-01-28T05:28:09.197Z,14.00
2019-01-28T05:30:35.602Z,14.00
2019-01-28T05:33:02.315Z,13.90
2019-01-28T05:35:28.865Z,14.00
2019-01-28T05:37:55.167Z,13.90
2019-01-28T05:40:23.573Z,13.90
2019-01-28T05:42:49.977Z,13.90
2019-01-28T05:45:18.494Z,13.90
2019-01-28T05:47:44.961Z,13.90
2019-01-28T05:50:12.989Z,13.90
2019-01-28T05:52:39.311Z,13.90
2019-01-28T05:55:08.346Z,13.90
2019-01-28T05:57:34.645Z,13.90
2019-01-28T06:00:01.041Z,13.90
2019-01-28T06:02:27.478Z,13.90
2019-01-28T06:04:53.876Z,13.90
2019-01-28T06:07:20.273Z,13.90
2019-01-28T06:09:46.926Z,13.90
2019-01-28T06:12:13.709Z,13.90
2019-01-28T06:14:40.141Z,13.90
2019-01-28T06:17:06.711Z,13.90
2019-01-28T06:19:33.554Z,13.90
2019-01-28T06:22:00.102Z,13.90
2019-01-28T06:24:26.416Z,13.90
2019-01-28T06:26:52.997Z,13.90
2019-01-28T06:29:19.514Z,13.90
2019-01-28T06:31:45.928Z,13.80
2019-01-28T06:34:12.833Z,13.90
2019-01-28T06:36:39.119Z,13.90
2019-01-28T06:39:07.869Z,13.80
2019-01-28T06:41:34.166Z,13.80
2019-01-28T06:44:00.683Z,13.80
2019-01-28T06:46:27.312Z,13.80
2019-01-28T06:48:53.712Z,13.80
2019-01-28T06:51:20.248Z,13.80
2019-01-28T06:53:46.544Z,13.80
2019-01-28T06:56:13.065Z,13.80
2019-01-28T06:58:39.371Z,13.80
2019-01-28T07:01:05.877Z,13.80
2019-01-28T07:03:32.206Z,13.80
2019-01-28T07:05:58.517Z,13.80
2019-01-28T07:08:24.838Z,13.80
2019-01-28T07:10:51.261Z,13.80
2019-01-28T07:13:17.558Z,13.80
2019-01-28T07:15:44.094Z,13.80
2019-01-28T07:18:10.408Z,13.80
2019-01-28T07:20:36.797Z,13.80
2019-01-28T07:23:03.423Z,13.80
2019-01-28T07:25:29.716Z,13.80
2019-01-28T07:27:56.068Z,13.80
2019-01-28T07:30:28.078Z,13.80
2019-01-28T07:32:54.706Z,13.80
2019-01-28T07:35:21.596Z,13.80
2019-01-28T07:37:48.107Z,13.80
2019-01-28T07:40:14.933Z,13.70
2019-01-28T07:42:41.709Z,13.70
2019-01-28T07:45:17.479Z,13.80
2019-01-28T07:47:43.892Z,13.80
2019-01-28T07:50:10.703Z,13.70
2019-01-28T07:52:37.049Z,13.80
2019-01-28T07:55:04.718Z,13.70
2019-01-28T07:57:31.688Z,13.80
2019-01-28T07:59:58.208Z,13.80
2019-01-28T08:02:24.514Z,13.80
2019-01-28T08:04:51.033Z,13.70
2019-01-28T08:07:17.558Z,13.70
2019-01-28T08:09:43.988Z,13.70
2019-01-28T08:12:10.397Z,13.80
2019-01-28T08:14:36.797Z,13.80
2019-01-28T08:17:10.243Z,13.90
2019-01-28T08:19:36.561Z,13.90
2019-01-28T08:22:03.964Z,13.80
2019-01-28T08:24:31.730Z,13.10
2019-01-28T08:26:58.902Z,12.70
2019-01-28T08:29:25.224Z,12.80
2019-01-28T08:31:51.623Z,13.00
2019-01-28T08:34:17.946Z,13.20
2019-01-28T08:36:44.244Z,13.30
2019-01-28T08:39:11.213Z,13.40
2019-01-28T08:41:37.793Z,13.50
2019-01-28T08:44:04.099Z,13.60
2019-01-28T08:46:30.632Z,13.60
2019-01-28T08:48:57.029Z,13.70
2019-01-28T08:51:23.627Z,13.70
2019-01-28T08:53:50.037Z,13.70
2019-01-28T08:56:16.804Z,13.80
2019-01-28T08:58:43.761Z,13.80
2019-01-28T09:01:14.496Z,13.90
2019-01-28T09:03:46.082Z,13.90
2019-01-28T09:06:18.102Z,13.90
2019-01-28T09:08:49.973Z,13.90
2019-01-28T09:11:22.301Z,14.00
2019-01-28T09:13:55.588Z,14.00
2019-01-28T09:16:26.741Z,14.00
2019-01-28T09:18:57.137Z,14.00
2019-01-28T09:21:26.880Z,14.00
2019-01-28T09:23:58.508Z,14.10
2019-01-28T09:26:30.433Z,14.10
2019-01-28T09:28:56.679Z,14.20
2019-01-28T09:31:23.100Z,14.20
2019-01-28T09:33:49.502Z,14.20
2019-01-28T09:36:15.917Z,14.20
2019-01-28T09:38:42.310Z,14.20
2019-01-28T09:41:08.603Z,14.20
2019-01-28T09:43:35.159Z,14.30
2019-01-28T09:46:01.900Z,14.30
2019-01-28T09:48:34.141Z,14.30
2019-01-28T09:50:57.454Z,14.40
2019-01-28T09:53:29.230Z,14.40
2019-01-28T09:55:52.438Z,14.40
2019-01-28T09:58:18.958Z,14.50
2019-01-28T10:00:47.824Z,14.50
2019-01-28T10:03:14.127Z,14.50
2019-01-28T10:05:40.535Z,14.50
2019-01-28T10:08:07.656Z,14.50
2019-01-28T10:10:33.948Z,14.60
2019-01-28T10:13:04.232Z,14.50
2019-01-28T10:15:30.941Z,14.50
2019-01-28T10:17:57.235Z,14.50
2019-01-28T10:20:28.610Z,14.50
2019-01-28T10:22:54.937Z,14.50
2019-01-28T10:25:21.484Z,14.50
2019-01-28T10:27:47.796Z,14.50
2019-01-28T10:30:17.394Z,14.50
2019-01-28T10:32:43.720Z,14.60
2019-01-28T10:35:11.913Z,14.60
2019-01-28T10:37:38.696Z,14.50
2019-01-28T10:40:08.803Z,14.60
2019-01-28T10:42:35.201Z,14.60
2019-01-28T10:45:01.624Z,14.60
2019-01-28T10:47:28.130Z,14.60
2019-01-28T10:49:54.588Z,14.60
2019-01-28T10:52:21.088Z,14.70
2019-01-28T10:54:47.395Z,14.70
2019-01-28T10:57:13.940Z,14.70
2019-01-28T10:59:40.329Z,14.70
2019-01-28T11:02:07.018Z,14.80
2019-01-28T11:04:33.700Z,14.80
2019-01-28T11:07:00.217Z,14.80
2019-01-28T11:09:26.648Z,14.90
2019-01-28T11:11:53.109Z,14.90
2019-01-28T11:14:19.928Z,14.90
2019-01-28T11:16:46.250Z,14.90
2019-01-28T11:19:12.646Z,14.90
2019-01-28T11:21:38.937Z,15.00
2019-01-28T11:24:05.466Z,15.00
2019-01-28T11:26:32.005Z,15.10
2019-01-28T11:28:58.553Z,15.10
2019-01-28T11:31:25.114Z,15.10
2019-01-28T11:33:51.739Z,15.20
2019-01-28T11:36:18.705Z,15.20
2019-01-28T11:38:45.213Z,15.30
2019-01-28T11:41:11.661Z,15.30
2019-01-28T11:43:38.246Z,15.30
2019-01-28T11:46:04.509Z,15.30
2019-01-28T11:48:32.655Z,15.30
2019-01-28T11:50:59.124Z,15.30
2019-01-28T11:53:25.515Z,15.20
2019-01-28T11:55:52.033Z,15.20
2019-01-28T11:58:18.324Z,15.20
2019-01-28T12:00:55.081Z,15.20
2019-01-28T12:03:21.516Z,15.30
2019-01-28T12:05:47.924Z,15.30
2019-01-28T12:08:14.765Z,15.30
2019-01-28T12:10:41.468Z,15.30
2019-01-28T12:13:09.209Z,15.40
2019-01-28T12:15:35.779Z,15.40
2019-01-28T12:18:02.561Z,15.50
2019-01-28T12:20:29.489Z,15.60
2019-01-28T12:22:55.900Z,15.70
2019-01-28T12:25:22.532Z,15.70
2019-01-28T12:27:49.149Z,15.70
2019-01-28T12:30:21.061Z,15.80
2019-01-28T12:32:47.585Z,15.80
2019-01-28T12:35:14.219Z,15.80
2019-01-28T12:37:40.669Z,15.70
2019-01-28T12:40:14.750Z,15.70
2019-01-28T12:42:41.305Z,15.70
2019-01-28T12:45:11.527Z,15.70
2019-01-28T12:47:38.150Z,15.70
2019-01-28T12:50:10.642Z,15.70
2019-01-28T12:52:37.181Z,15.70
2019-01-28T12:55:07.357Z,15.70
2019-01-28T12:57:33.900Z,15.70
2019-01-28T13:01:13.168Z,15.80
2019-01-28T13:03:39.974Z,16.00
2019-01-28T13:06:06.833Z,16.60
2019-01-28T13:08:33.195Z,17.00
2019-01-28T13:10:59.613Z,16.90
2019-01-28T13:13:25.949Z,17.00
2019-01-28T13:15:52.374Z,16.80
2019-01-28T13:18:18.661Z,16.70
2019-01-28T13:20:44.960Z,16.60
2019-01-28T13:23:11.257Z,16.50
2019-01-28T13:25:37.657Z,16.50
2019-01-28T13:28:05.578Z,16.50
2019-01-28T13:30:35.176Z,16.50
2019-01-28T13:33:01.471Z,16.50
2019-01-28T13:35:28.116Z,16.60
2019-01-28T13:37:56.324Z,16.60
2019-01-28T13:40:22.766Z,16.60
2019-01-28T13:42:49.144Z,16.60
2019-01-28T13:45:19.326Z,16.60
2019-01-28T13:47:45.953Z,16.60
2019-01-28T13:50:15.483Z,16.50
2019-01-28T13:52:41.917Z,16.60
2019-01-28T13:55:09.109Z,16.60
2019-01-28T13:57:35.860Z,16.60
2019-01-28T14:00:06.260Z,16.60
2019-01-28T14:02:32.680Z,16.60
2019-01-28T14:04:59.489Z,16.60
2019-01-28T14:07:26.114Z,16.60
2019-01-28T14:09:52.691Z,16.60
2019-01-28T14:12:19.359Z,16.60
2019-01-28T14:14:45.862Z,16.60
2019-01-28T14:17:12.411Z,16.60
2019-01-28T14:19:46.467Z,16.60
2019-01-28T14:22:11.757Z,16.60
2019-01-28T14:24:38.382Z,16.60
2019-01-28T14:27:04.800Z,16.60
2019-01-28T14:29:31.337Z,16.60
2019-01-28T14:31:57.672Z,16.60
2019-01-28T14:34:23.978Z,16.50
2019-01-28T14:36:50.805Z,16.50
2019-01-28T14:39:17.292Z,16.60
2019-01-28T14:41:43.739Z,16.60
2019-01-28T14:44:10.240Z,16.70
2019-01-28T14:46:36.658Z,16.60
2019-01-28T14:49:03.533Z,16.70
2019-01-28T14:51:29.941Z,16.70
2019-01-28T14:53:56.581Z,16.70
2019-01-28T14:56:23.124Z,16.70
2019-01-28T14:58:50.495Z,16.70
2019-01-28T15:01:17.021Z,16.80
2019-01-28T15:03:43.454Z,16.80
2019-01-28T15:06:09.880Z,16.80
2019-01-28T15:08:36.271Z,16.80
2019-01-28T15:11:02.905Z,16.80
2019-01-28T15:13:29.363Z,16.90
2019-01-28T15:15:55.662Z,16.90
2019-01-28T15:18:22.186Z,16.90
2019-01-28T15:20:48.590Z,16.90
2019-01-28T15:23:15.043Z,16.90
2019-01-28T15:25:41.404Z,16.80
2019-01-28T15:28:07.812Z,16.80
2019-01-28T15:30:34.323Z,16.90
2019-01-28T15:33:00.632Z,16.90
2019-01-28T15:35:26.901Z,16.90
2019-01-28T15:37:53.209Z,16.90
2019-01-28T15:40:28.784Z,17.00
2019-01-28T15:42:55.106Z,17.00
2019-01-28T15:45:24.001Z,17.00
2019-01-28T15:47:50.414Z,17.00
2019-01-28T15:50:17.468Z,17.00
2019-01-28T15:52:44.202Z,17.00
2019-01-28T15:55:16.994Z,16.90
2019-01-28T15:57:43.305Z,16.80
2019-01-28T16:00:15.898Z,16.80
2019-01-28T16:02:42.597Z,16.80
2019-01-28T16:05:09.189Z,16.80
2019-01-28T16:07:35.624Z,16.80
2019-01-28T16:10:02.446Z,16.70
2019-01-28T16:12:28.949Z,16.70
2019-01-28T16:14:55.298Z,16.70
2019-01-28T16:17:21.737Z,16.70
2019-01-28T16:19:48.791Z,16.60
2019-01-28T16:22:15.209Z,16.60
2019-01-28T16:24:41.989Z,16.60
2019-01-28T16:27:08.367Z,16.60
2019-01-28T16:29:34.721Z,16.60
2019-01-28T16:32:01.025Z,16.50
2019-01-28T16:34:27.440Z,16.50
2019-01-28T16:36:53.976Z,16.50
2019-01-28T16:39:20.489Z,16.50
2019-01-28T16:41:46.809Z,16.40
2019-01-28T16:44:13.548Z,16.40
2019-01-28T16:46:39.858Z,16.40
2019-01-28T16:49:06.405Z,16.40
2019-01-28T16:51:32.977Z,16.40
2019-01-28T16:53:59.292Z,16.40
2019-01-28T16:56:25.806Z,16.30
2019-01-28T16:58:52.426Z,16.20
2019-01-28T17:01:18.857Z,16.10
2019-01-28T17:03:45.277Z,16.00
2019-01-28T17:06:11.585Z,16.00
2019-01-28T17:08:37.888Z,15.90
2019-01-28T17:11:04.202Z,15.90
2019-01-28T17:13:30.823Z,15.80
2019-01-28T17:15:57.243Z,15.80
2019-01-28T17:18:23.874Z,15.80
2019-01-28T17:20:50.295Z,15.70
2019-01-28T17:23:16.818Z,15.70
2019-01-28T17:25:45.228Z,15.70
2019-01-28T17:28:11.648Z,15.60
2019-01-28T17:30:44.821Z,15.60
2019-01-28T17:33:11.234Z,15.60
2019-01-28T17:35:37.780Z,15.60
2019-01-28T17:38:05.634Z,15.50
2019-01-28T17:40:32.522Z,15.50
2019-01-28T17:42:58.946Z,15.50
2019-01-28T17:45:27.020Z,15.50
2019-01-28T17:47:53.655Z,15.40
2019-01-28T17:50:24.565Z,15.40
2019-01-28T17:52:48.447Z,15.40
2019-01-28T17:55:15.390Z,15.40
2019-01-28T17:57:42.058Z,15.40
2019-01-28T18:00:12.049Z,15.50
2019-01-28T18:02:38.736Z,15.50
2019-01-28T18:05:07.244Z,15.50
2019-01-28T18:07:33.653Z,15.50
2019-01-28T18:10:00.097Z,15.50
2019-01-28T18:12:26.505Z,15.50
2019-01-28T18:14:52.959Z,15.50
2019-01-28T18:17:19.280Z,15.50
2019-01-28T18:19:46.011Z,15.40
2019-01-28T18:22:12.791Z,15.40
2019-01-28T18:24:39.322Z,15.40
2019-01-28T18:27:05.754Z,15.50
2019-01-28T18:29:32.175Z,15.60
2019-01-28T18:31:58.607Z,15.70
2019-01-28T18:34:24.953Z,15.80
2019-01-28T18:36:51.655Z,15.80
2019-01-28T18:39:18.324Z,15.80
2019-01-28T18:41:44.838Z,15.80
2019-01-28T18:44:11.246Z,15.70
2019-01-28T18:46:37.903Z,15.80
2019-01-28T18:49:04.536Z,15.80
2019-01-28T18:51:31.289Z,15.80
2019-01-28T18:53:57.724Z,15.80
2019-01-28T18:56:24.257Z,15.90
2019-01-28T18:58:50.578Z,15.90
2019-01-28T19:01:17.036Z,16.00
2019-01-28T19:03:43.562Z,16.20
2019-01-28T19:08:36.008Z,16.50
2019-01-28T19:11:37.891Z,16.40
2019-01-28T19:14:06.213Z,16.30
2019-01-28T19:16:37.492Z,16.10
2019-01-28T19:19:08.703Z,16.10
2019-01-28T19:21:42.686Z,16.10
2019-01-28T19:24:16.006Z,16.10
2019-01-28T19:26:42.601Z,16.10
2019-01-28T19:29:15.180Z,16.20
2019-01-28T19:31:46.724Z,16.10
2019-01-28T19:34:13.485Z,16.10
2019-01-28T19:36:40.520Z,16.10
2019-01-28T19:39:07.756Z,16.10
2019-01-28T19:41:34.085Z,16.00
2019-01-28T19:44:00.525Z,16.00
2019-01-28T19:46:26.934Z,16.00
2019-01-28T19:48:53.540Z,16.00
2019-01-28T19:51:20.325Z,16.00
2019-01-28T19:53:46.847Z,16.00
2019-01-28T19:56:13.278Z,16.00
2019-01-28T19:58:39.894Z,16.00
2019-01-28T20:01:06.447Z,16.00
2019-01-28T20:03:32.883Z,16.10
2019-01-28T20:05:59.220Z,16.10
2019-01-28T20:08:25.661Z,16.00
2019-01-28T20:10:52.263Z,16.00
2019-01-28T20:13:18.819Z,16.10
2019-01-28T20:15:46.817Z,16.10
2019-01-28T20:18:14.988Z,16.10
2019-01-28T20:20:41.258Z,16.10
2019-01-28T20:23:08.162Z,16.00
2019-01-28T20:25:37.529Z,16.00
2019-01-28T20:28:03.872Z,16.00
2019-01-28T20:30:30.528Z,16.00
2019-01-28T20:32:56.943Z,15.90
2019-01-28T20:35:24.540Z,15.90
2019-01-28T20:37:50.895Z,15.90
2019-01-28T20:40:17.722Z,15.90
2019-01-28T20:42:44.281Z,15.90
2019-01-28T20:45:16.876Z,15.90
2019-01-28T20:47:43.434Z,15.90
2019-01-28T20:50:13.247Z,15.90
2019-01-28T20:52:39.588Z,15.90
2019-01-28T20:55:07.327Z,15.90
2019-01-28T20:57:33.773Z,15.90
2019-01-28T21:00:00.360Z,15.90
2019-01-28T21:02:26.879Z,15.80
2019-01-28T21:04:53.668Z,15.90
2019-01-28T21:07:20.112Z,16.00
2019-01-28T21:09:47.030Z,16.00
2019-01-28T21:12:13.737Z,15.90
2019-01-28T21:14:40.320Z,15.90
2019-01-28T21:17:06.819Z,15.90
2019-01-28T21:19:33.362Z,15.90
2019-01-28T21:21:59.685Z,15.80
2019-01-28T21:24:26.013Z,15.80
2019-01-28T21:26:52.432Z,15.80
2019-01-28T21:29:18.961Z,15.70
2019-01-28T21:31:45.408Z,15.70
2019-01-28T21:34:12.034Z,15.70
2019-01-28T21:36:40.367Z,15.70
2019-01-28T21:39:08.268Z,15.70
2019-01-28T21:41:34.984Z,15.70
2019-01-28T21:44:01.408Z,15.70
2019-01-28T21:46:27.817Z,15.60
2019-01-28T21:48:54.614Z,15.70
2019-01-28T21:51:21.135Z,15.70
2019-01-28T21:53:47.575Z,15.70
2019-01-28T21:56:14.333Z,15.70
2019-01-28T21:58:40.741Z,15.60
2019-01-28T22:01:07.286Z,15.60
2019-01-28T22:03:33.701Z,15.60
2019-01-28T22:06:00.549Z,15.50
2019-01-28T22:08:27.292Z,15.50
2019-01-28T22:10:53.837Z,15.50
2019-01-28T22:13:20.616Z,15.40
2019-01-28T22:15:47.203Z,15.40
2019-01-28T22:18:13.616Z,15.40
2019-01-28T22:20:40.028Z,15.40
2019-01-28T22:23:06.828Z,15.40
2019-01-28T22:25:33.758Z,15.40
2019-01-28T22:28:00.175Z,15.40
2019-01-28T22:30:26.585Z,15.30
2019-01-28T22:32:53.226Z,15.30
2019-01-28T22:35:19.633Z,15.30
2019-01-28T22:37:46.365Z,15.30
2019-01-28T22:40:14.964Z,15.30
2019-01-28T22:42:41.499Z,15.30
2019-01-28T22:45:11.421Z,15.30
2019-01-28T22:47:37.850Z,15.30
2019-01-28T22:50:08.010Z,15.20
2019-01-28T22:52:34.428Z,15.20
2019-01-28T22:55:01.072Z,15.20
2019-01-28T22:57:27.734Z,15.20
2019-01-28T22:59:54.152Z,15.20
2019-01-28T23:02:20.964Z,15.20
2019-01-28T23:04:47.849Z,15.20
2019-01-28T23:07:14.365Z,15.20
2019-01-28T23:09:40.809Z,15.20
2019-01-28T23:12:07.137Z,15.10
2019-01-28T23:14:33.457Z,15.10
2019-01-28T23:16:59.990Z,15.20
2019-01-28T23:19:26.297Z,15.10
2019-01-28T23:21:52.641Z,15.10
2019-01-28T23:24:18.937Z,15.10
2019-01-28T23:26:45.248Z,15.10
2019-01-28T23:29:11.654Z,15.10
2019-01-28T23:31:38.076Z,15.10
2019-01-28T23:34:04.474Z,15.10
2019-01-28T23:36:30.875Z,15.10
2019-01-28T23:38:57.301Z,15.10
2019-01-28T23:41:23.731Z,15.00
2019-01-28T23:43:50.196Z,15.00
2019-01-28T23:46:16.608Z,15.00
2019-01-28T23:48:43.320Z,15.00
2019-01-28T23:51:09.781Z,15.00
2019-01-28T23:53:36.293Z,15.00
2019-01-28T23:56:02.628Z,15.00
2019-01-28T23:58:29.051Z,15.00
